Time;durP1;ratioP1;P1;durP2;ratioP2;P2;SDS_P1;SDS_P2;PMS_P1;PMS_P2;Temp;Humidity;BMP_temperature;BMP_pressure;BME280_temperature;BME280_humidity;BME280_pressure;Samples;Min_cycle;Max_cycle;Signal;HPM_P1;HPM_P2
2022/08/17 00:00:54;;;;;;;10.88;5.30;;;;;;;19.74;64.14;98727.59;5091875;28;20080;-57
2022/08/17 00:03:27;;;;;;;12.20;5.10;;;;;;;19.75;63.97;98734.63;5090450;28;20027;-57
2022/08/17 00:06:19;;;;;;;9.68;5.30;;;;;;;19.59;64.71;98721.44;5098318;28;20024;-57
2022/08/17 00:08:47;;;;;;;12.23;5.78;;;;;;;19.59;64.60;98715.19;5085740;28;20579;-57
2022/08/17 00:11:22;;;;;;;11.63;5.53;;;;;;;19.57;65.13;98712.81;5090359;28;20061;-57
2022/08/17 00:13:50;;;;;;;12.20;6.80;;;;;;;19.53;64.99;98719.19;5091549;28;20435;-57
2022/08/17 00:16:30;;;;;;;15.55;7.75;;;;;;;19.63;64.49;98718.09;5090890;28;20020;-57
2022/08/17 00:18:57;;;;;;;10.73;6.50;;;;;;;19.59;64.29;98710.56;5060616;28;20035;-57
2022/08/17 00:21:23;;;;;;;10.10;6.25;;;;;;;19.67;64.40;98716.34;5089929;28;20028;-57
2022/08/17 00:23:49;;;;;;;7.70;5.40;;;;;;;19.54;64.62;98716.13;5091343;28;20020;-57
2022/08/17 00:26:14;;;;;;;13.65;5.55;;;;;;;19.34;65.20;98719.41;5091602;28;20092;-57
2022/08/17 00:28:40;;;;;;;9.32;5.63;;;;;;;19.06;66.97;98714.16;5091462;28;20039;-57
2022/08/17 00:31:07;;;;;;;8.05;5.45;;;;;;;18.86;67.86;98710.03;5098162;28;20063;-57
2022/08/17 00:33:32;;;;;;;11.27;5.93;;;;;;;18.93;67.37;98715.03;5091518;28;20028;-57
2022/08/17 00:35:58;;;;;;;13.75;5.80;;;;;;;19.06;66.74;98719.56;5090932;28;20032;-57
2022/08/17 00:38:23;;;;;;;10.95;5.50;;;;;;;19.18;66.44;98722.53;5100150;27;20028;-58
2022/08/17 00:40:52;;;;;;;10.13;5.80;;;;;;;19.07;66.85;98715.75;5091526;28;20024;-57
2022/08/17 00:43:40;;;;;;;8.73;5.43;;;;;;;19.04;66.63;98713.66;5091213;28;20059;-57
2022/08/17 00:46:14;;;;;;;10.50;5.55;;;;;;;19.05;66.59;98718.00;5089085;28;20089;-57
2022/08/17 00:48:40;;;;;;;11.57;5.93;;;;;;;18.91;67.33;98718.03;5090787;28;20378;-57
2022/08/17 00:51:11;;;;;;;8.48;5.60;;;;;;;18.90;67.26;98715.66;5097319;28;20066;-57
2022/08/17 00:53:41;;;;;;;9.68;5.93;;;;;;;18.77;67.72;98711.09;5091467;28;20035;-57
2022/08/17 00:56:10;;;;;;;10.63;5.72;;;;;;;18.77;67.35;98716.50;5089904;28;20024;-57
2022/08/17 00:58:38;;;;;;;15.85;6.90;;;;;;;18.86;67.45;98720.88;5089396;28;20024;-57
2022/08/17 01:01:07;;;;;;;12.18;5.80;;;;;;;18.95;66.79;98723.69;5085421;28;20466;-57
2022/08/17 01:03:32;;;;;;;12.20;6.20;;;;;;;18.93;66.87;98720.47;5094998;28;20411;-57
2022/08/17 01:05:59;;;;;;;13.07;6.20;;;;;;;18.88;66.97;98723.31;5090607;28;20024;-57
2022/08/17 01:08:26;;;;;;;15.45;6.18;;;;;;;18.87;67.51;98718.97;5107707;28;20016;-57
2022/08/17 01:10:53;;;;;;;10.75;5.97;;;;;;;18.84;67.79;98723.09;5073350;28;20489;-57
2022/08/17 01:13:19;;;;;;;12.88;5.93;;;;;;;18.69;67.98;98716.09;5080457;28;20592;-57
2022/08/17 01:16:06;;;;;;;12.35;6.38;;;;;;;18.27;69.79;98712.75;5070613;28;20450;-57
2022/08/17 01:18:32;;;;;;;14.02;6.60;;;;;;;18.46;68.85;98714.50;5070329;28;20039;-57
2022/08/17 01:20:58;;;;;;;13.60;6.68;;;;;;;18.38;69.40;98715.25;5068674;28;20379;-57
2022/08/17 01:23:24;;;;;;;11.77;6.35;;;;;;;18.08;70.04;98712.09;5069273;28;20032;-57
2022/08/17 01:25:51;;;;;;;15.20;6.38;;;;;;;18.29;69.46;98707.81;5052158;28;20037;-57
2022/08/17 01:28:17;;;;;;;12.70;6.78;;;;;;;18.41;69.09;98710.00;5079794;28;20093;-57
2022/08/17 01:30:43;;;;;;;11.60;6.25;;;;;;;18.53;68.80;98709.44;5069102;28;20418;-57
2022/08/17 01:33:10;;;;;;;11.02;6.32;;;;;;;18.62;68.34;98713.03;5070352;28;20536;-57
2022/08/17 01:35:36;;;;;;;12.70;6.90;;;;;;;18.44;68.65;98712.09;5070060;28;20059;-57
2022/08/17 01:38:02;;;;;;;11.05;6.72;;;;;;;18.33;69.24;98703.38;5070264;28;20017;-57
2022/08/17 01:40:38;;;;;;;9.48;6.38;;;;;;;18.39;69.92;98711.41;5068925;28;20615;-57
2022/08/17 01:43:20;;;;;;;15.07;6.75;;;;;;;18.43;69.58;98718.63;5070370;28;20120;-57
2022/08/17 01:45:47;;;;;;;10.52;6.60;;;;;;;18.49;69.18;98716.59;5069402;28;20078;-57
2022/08/17 01:48:13;;;;;;;11.88;6.75;;;;;;;18.66;68.36;98715.94;5070336;28;20470;-57
2022/08/17 01:50:39;;;;;;;11.85;6.78;;;;;;;18.63;68.31;98711.91;5069448;28;20526;-57
2022/08/17 01:53:08;;;;;;;9.98;7.22;;;;;;;18.63;68.96;98717.34;5069171;28;20530;-57
2022/08/17 01:56:13;;;;;;;12.80;6.32;;;;;;;18.43;69.28;98732.19;5069864;28;20032;-57
2022/08/17 01:58:39;;;;;;;13.07;6.75;;;;;;;18.37;69.35;98727.19;5065934;28;20392;-57
2022/08/17 02:01:05;;;;;;;12.48;6.90;;;;;;;17.97;70.85;98722.38;5069961;28;20032;-57
2022/08/17 02:03:31;;;;;;;13.85;7.18;;;;;;;17.82;71.55;98723.47;5069997;28;20467;-57
2022/08/17 02:05:56;;;;;;;10.55;7.13;;;;;;;17.74;71.90;98720.63;5069459;28;20082;-57
2022/08/17 02:08:22;;;;;;;13.13;7.07;;;;;;;17.77;72.39;98715.41;5072461;28;20035;-57
2022/08/17 02:10:48;;;;;;;12.23;6.53;;;;;;;17.91;72.07;98717.34;5073885;28;20119;-57
2022/08/17 02:13:13;;;;;;;14.50;6.78;;;;;;;17.94;72.24;98712.09;5089773;27;20607;-57
2022/08/17 02:15:40;;;;;;;19.63;7.72;;;;;;;18.11;71.24;98716.91;5114343;27;20081;-57
2022/08/17 02:18:06;;;;;;;10.98;6.85;;;;;;;18.30;70.57;98720.28;5096414;28;20532;-57
2022/08/17 02:20:31;;;;;;;9.43;7.07;;;;;;;18.39;69.71;98723.06;5113742;27;20610;-57
2022/08/17 02:22:58;;;;;;;22.15;7.90;;;;;;;18.37;70.43;98724.47;5114215;27;20040;-57
2022/08/17 02:25:24;;;;;;;13.20;7.50;;;;;;;18.29;70.98;98717.84;5103192;28;20076;-57
2022/08/17 02:27:49;;;;;;;12.63;7.03;;;;;;;18.35;70.18;98715.84;5114213;27;20023;-57
2022/08/17 02:30:15;;;;;;;10.38;6.40;;;;;;;18.32;70.19;98725.38;5113973;27;20763;-57
2022/08/17 02:32:40;;;;;;;11.15;7.28;;;;;;;18.17;71.24;98726.53;5114232;27;20519;-57
2022/08/17 02:35:07;;;;;;;11.20;7.47;;;;;;;18.16;71.02;98727.63;5113921;27;20366;-57
2022/08/17 02:37:33;;;;;;;13.70;8.10;;;;;;;18.08;71.40;98722.94;5112603;27;20470;-57
2022/08/17 02:39:58;;;;;;;11.23;7.15;;;;;;;18.18;70.88;98722.72;5114062;27;20043;-57
2022/08/17 02:42:30;;;;;;;16.52;8.20;;;;;;;18.04;71.21;98716.50;5113583;27;20764;-57
2022/08/17 02:44:56;;;;;;;12.88;8.20;;;;;;;18.25;70.65;98711.47;5114642;27;20024;-57
2022/08/17 02:47:21;;;;;;;13.48;7.95;;;;;;;18.22;70.99;98712.88;5121490;27;20023;-57
2022/08/17 02:49:46;;;;;;;21.95;8.07;;;;;;;18.14;70.97;98708.16;5113126;27;20038;-57
2022/08/17 02:52:12;;;;;;;16.90;8.18;;;;;;;18.14;71.46;98712.78;5113715;27;20031;-57
2022/08/17 02:54:37;;;;;;;14.05;7.30;;;;;;;18.16;71.15;98718.69;5113728;27;20671;-57
2022/08/17 02:57:03;;;;;;;12.48;8.10;;;;;;;18.16;71.03;98719.50;5113673;27;20024;-57
2022/08/17 02:59:28;;;;;;;14.35;8.15;;;;;;;18.18;70.95;98711.88;5113362;27;20488;-57
2022/08/17 03:01:54;;;;;;;18.67;8.75;;;;;;;18.39;70.31;98716.84;5095395;28;20385;-57
2022/08/17 03:04:20;;;;;;;20.55;7.82;;;;;;;18.30;70.63;98708.63;5095026;27;20024;-57
2022/08/17 03:06:45;;;;;;;13.95;7.97;;;;;;;18.30;70.27;98703.22;5118632;27;20066;-57
2022/08/17 03:09:11;;;;;;;21.35;8.18;;;;;;;18.27;70.90;98711.94;5113331;27;20016;-57
2022/08/17 03:11:37;;;;;;;13.55;8.38;;;;;;;18.16;71.54;98708.66;5113939;27;20114;-57
2022/08/17 03:14:02;;;;;;;15.90;8.90;;;;;;;17.86;72.73;98715.53;5112677;27;20393;-57
2022/08/17 03:16:27;;;;;;;15.40;8.07;;;;;;;18.03;72.16;98710.28;5113215;27;20046;-57
2022/08/17 03:18:53;;;;;;;13.85;7.90;;;;;;;18.05;71.76;98712.72;5112963;27;20024;-57
2022/08/17 03:21:19;;;;;;;15.75;7.47;;;;;;;18.04;72.13;98711.09;5112269;27;20531;-57
2022/08/17 03:23:44;;;;;;;12.98;8.52;;;;;;;18.01;72.55;98714.41;5112973;27;20027;-57
2022/08/17 03:26:10;;;;;;;16.60;8.18;;;;;;;17.99;72.73;98716.63;5113129;27;20023;-57
2022/08/17 03:28:36;;;;;;;15.38;8.93;;;;;;;18.06;72.20;98709.69;5112746;27;20023;-57
2022/08/17 03:31:02;;;;;;;16.98;9.43;;;;;;;18.14;72.01;98715.50;5112589;27;20157;-57
2022/08/17 03:33:28;;;;;;;15.10;8.95;;;;;;;18.19;72.06;98718.88;5112584;27;20032;-57
2022/08/17 03:35:53;;;;;;;16.90;7.95;;;;;;;18.23;71.96;98719.09;5112761;27;20024;-56
2022/08/17 03:38:19;;;;;;;13.82;8.77;;;;;;;18.07;72.05;98710.47;5112794;27;20046;-57
2022/08/17 03:40:45;;;;;;;18.58;8.38;;;;;;;17.97;72.44;98716.13;5112831;27;20031;-57
2022/08/17 03:43:10;;;;;;;18.20;9.65;;;;;;;17.97;73.34;98710.69;5112953;27;20016;-58
2022/08/17 03:56:42;;;;;;;15.88;9.80;;;;;;;18.25;71.72;98725.81;5112412;27;20038;-57
2022/08/17 03:59:10;;;;;;;25.65;9.90;;;;;;;18.27;71.77;98720.06;5094544;27;20024;-57
2022/08/17 04:01:36;;;;;;;16.92;9.10;;;;;;;18.20;72.10;98725.94;5113549;27;20058;-57
2022/08/17 04:04:01;;;;;;;15.20;9.63;;;;;;;18.21;71.68;98726.72;5101518;27;20023;-57
2022/08/17 04:06:27;;;;;;;18.88;9.52;;;;;;;18.06;72.49;98722.44;5119628;27;20102;-57
2022/08/17 04:08:52;;;;;;;18.30;9.05;;;;;;;17.95;72.75;98721.06;5112100;27;20474;-57
2022/08/17 04:11:18;;;;;;;20.38;10.05;;;;;;;18.11;72.48;98725.03;5112302;27;20031;-57
2022/08/17 04:13:43;;;;;;;17.92;9.52;;;;;;;18.06;71.95;98719.72;5111878;27;20039;-57
2022/08/17 04:16:09;;;;;;;17.63;9.15;;;;;;;18.00;72.00;98715.53;5120365;27;20035;-58
2022/08/17 04:18:34;;;;;;;18.02;10.20;;;;;;;18.03;72.33;98714.91;5116802;27;20023;-58
2022/08/17 04:21:00;;;;;;;20.15;10.13;;;;;;;18.06;72.41;98714.31;5117541;27;20047;-58
2022/08/17 04:23:31;;;;;;;17.25;9.60;;;;;;;18.10;72.23;98720.72;5090805;28;20046;-58
2022/08/17 04:25:56;;;;;;;16.60;9.90;;;;;;;18.10;72.16;98720.72;5114123;27;20114;-58
2022/08/17 04:28:22;;;;;;;18.60;9.38;;;;;;;18.13;72.13;98722.81;5112217;27;20028;-58
2022/08/17 04:30:50;;;;;;;21.67;9.27;;;;;;;18.09;72.85;98713.69;5111642;27;20439;-58
2022/08/17 04:33:20;;;;;;;19.80;9.65;;;;;;;17.89;73.32;98726.56;5112555;28;20066;-58
2022/08/17 04:35:49;;;;;;;23.98;10.40;;;;;;;18.01;72.74;98719.84;5115493;27;20469;-57
2022/08/17 04:38:20;;;;;;;17.40;9.10;;;;;;;18.38;71.76;98726.88;5112034;27;20077;-57
2022/08/17 04:43:31;;;;;;;16.50;9.52;;;;;;;18.24;72.80;98721.47;5099550;28;20030;-57
2022/08/17 04:45:58;;;;;;;18.65;9.70;;;;;;;18.26;72.35;98719.28;5112050;28;20106;-58
2022/08/17 04:48:28;;;;;;;20.70;10.27;;;;;;;18.25;72.51;98723.09;5113679;27;20493;-58
2022/08/17 04:50:53;;;;;;;;;;;;;;;17.99;73.69;98724.75;5111522;28;20088;-56
2022/08/17 04:53:20;;;;;;;15.88;10.35;;;;;;;18.18;72.78;98733.56;5114537;27;19915;-57
2022/08/17 04:55:46;;;;;;;17.45;10.00;;;;;;;18.21;72.25;98722.09;5111371;28;20032;-57
2022/08/17 04:58:11;;;;;;;21.35;10.40;;;;;;;18.32;72.32;98718.06;5111596;28;20024;-57
2022/08/17 05:00:37;;;;;;;24.73;10.65;;;;;;;18.37;72.55;98719.88;5093899;28;20468;-57
2022/08/17 05:03:03;;;;;;;23.42;10.18;;;;;;;18.38;72.89;98715.25;5114464;27;20490;-56
2022/08/17 05:05:30;;;;;;;21.83;10.07;;;;;;;18.53;72.06;98723.03;5111045;27;20046;-57
2022/08/17 05:07:58;;;;;;;20.83;10.00;;;;;;;18.65;71.00;98726.00;5111210;27;20102;-57
2022/08/17 05:10:25;;;;;;;19.90;10.05;;;;;;;18.57;71.10;98729.44;5111002;28;20027;-57
2022/08/17 05:12:58;;;;;;;18.30;10.40;;;;;;;18.50;71.84;98723.63;5091655;27;20483;-57
2022/08/17 05:15:23;;;;;;;25.02;10.27;;;;;;;18.29;72.53;98715.94;5115189;27;20051;-57
2022/08/17 05:17:49;;;;;;;21.85;10.05;;;;;;;18.45;72.10;98710.19;5114651;27;20054;-57
2022/08/17 05:20:14;;;;;;;18.55;10.40;;;;;;;18.09;74.20;98719.09;5110436;28;20396;-59
2022/08/17 05:22:50;;;;;;;16.52;10.27;;;;;;;18.32;73.46;98725.38;5110603;28;20080;-57
2022/08/17 05:25:20;;;;;;;19.23;10.40;;;;;;;18.53;72.62;98725.72;5104196;28;20034;-57
2022/08/17 05:27:45;;;;;;;19.70;10.23;;;;;;;18.69;71.92;98720.75;5101512;28;20019;-57
2022/08/17 05:30:11;;;;;;;23.40;10.73;;;;;;;18.67;71.83;98718.34;5076655;28;20023;-57
2022/08/17 05:32:37;;;;;;;21.38;10.23;;;;;;;18.84;70.61;98723.09;5102533;28;20112;-57
2022/08/17 05:35:03;;;;;;;25.27;10.98;;;;;;;18.84;70.96;98719.59;5110755;28;20024;-57
2022/08/17 05:37:29;;;;;;;24.02;10.00;;;;;;;18.92;71.47;98735.13;5110831;28;20023;-57
2022/08/17 05:39:54;;;;;;;23.77;11.70;;;;;;;18.95;70.32;98732.63;5110621;28;20051;-57
2022/08/17 05:42:20;;;;;;;23.30;11.40;;;;;;;18.92;70.52;98741.38;5111685;27;20036;-57
2022/08/17 05:44:45;;;;;;;22.27;11.00;;;;;;;19.29;69.89;98733.13;5119942;27;20031;-57
2022/08/17 05:47:10;;;;;;;20.02;9.93;;;;;;;19.35;70.12;98737.31;5115299;27;20019;-57
2022/08/17 05:49:36;;;;;;;25.70;11.40;;;;;;;19.24;71.23;98730.53;5114444;27;20569;-57
2022/08/17 05:52:14;;;;;;;20.75;11.13;;;;;;;19.43;69.81;98728.41;5096427;27;21642;-57
2022/08/17 05:55:10;;;;;;;25.95;10.77;;;;;;;19.05;71.70;98723.41;5106753;28;20440;-56
2022/08/17 05:57:52;;;;;;;30.67;10.73;;;;;;;19.01;71.51;98727.84;5096760;27;20032;-57
2022/08/17 06:00:26;;;;;;;23.35;10.95;;;;;;;18.82;71.82;98725.34;5084795;28;20028;-57
2022/08/17 06:03:13;;;;;;;22.90;10.82;;;;;;;18.83;71.63;98723.44;5090784;28;20043;-57
2022/08/17 06:05:44;;;;;;;31.38;11.50;;;;;;;18.74;71.80;98720.63;5123932;27;20084;-57
2022/08/17 06:08:16;;;;;;;16.20;9.77;;;;;;;19.02;70.88;98723.22;5120676;27;20019;-57
2022/08/17 06:10:56;;;;;;;19.40;12.00;;;;;;;19.21;69.47;98714.88;5114541;27;20031;-56
2022/08/17 06:13:49;;;;;;;22.77;11.65;;;;;;;19.01;70.50;98719.72;5116557;27;20047;-57
2022/08/17 06:16:19;;;;;;;27.85;10.90;;;;;;;19.51;68.18;98711.31;5114544;27;20036;-57
2022/08/17 06:19:20;;;;;;;18.67;10.77;;;;;;;19.74;67.95;98724.88;5114674;27;20027;-57
2022/08/17 06:21:47;;;;;;;19.10;10.52;;;;;;;19.65;68.19;98722.09;5102665;27;20038;-57
2022/08/17 06:24:45;;;;;;;19.70;12.10;;;;;;;19.39;68.55;98727.41;5103125;27;20019;-57
2022/08/17 06:27:34;;;;;;;21.15;11.63;;;;;;;19.98;66.87;98717.09;5096365;28;20627;-58
2022/08/17 06:29:59;;;;;;;24.08;11.90;;;;;;;19.94;66.75;98713.41;5114205;27;20119;-60
2022/08/17 06:32:25;;;;;;;23.52;12.13;;;;;;;20.17;66.42;98721.47;5113945;27;20452;-57
2022/08/17 06:34:51;;;;;;;25.40;12.07;;;;;;;20.33;65.46;98714.41;5113953;27;20028;-58
2022/08/17 06:37:32;;;;;;;24.25;11.57;;;;;;;20.14;65.42;98725.59;5104931;27;20418;-59
2022/08/17 06:40:06;;;;;;;25.17;12.20;;;;;;;19.81;67.27;98730.66;5086871;27;20390;-57
2022/08/17 06:42:46;;;;;;;29.05;11.80;;;;;;;20.03;67.05;98725.09;5113905;28;20027;-56
2022/08/17 06:45:17;;;;;;;24.83;11.23;;;;;;;20.18;67.43;98732.00;5114163;27;20020;-57
2022/08/17 06:47:54;;;;;;;29.48;13.48;;;;;;;20.18;67.69;98721.13;5098113;28;20038;-56
2022/08/17 06:50:35;;;;;;;21.00;11.73;;;;;;;19.97;68.13;98728.31;5100891;28;20032;-57
2022/08/17 06:53:19;;;;;;;25.25;9.77;;;;;;;20.12;68.24;98719.69;5105081;28;20439;-56
2022/08/17 06:56:08;;;;;;;28.58;9.85;;;;;;;20.23;67.77;98722.91;5098220;28;20028;-56
2022/08/17 06:58:35;;;;;;;41.55;13.65;;;;;;;20.14;68.11;98727.53;5116223;27;20028;-56
2022/08/17 07:01:13;;;;;;;30.33;11.93;;;;;;;20.33;67.08;98728.03;5100066;27;20046;-56
2022/08/17 07:04:08;;;;;;;29.90;13.43;;;;;;;20.31;66.62;98734.91;5104059;27;20039;-56
2022/08/17 07:06:56;;;;;;;42.28;15.30;;;;;;;19.80;68.36;98737.22;5098478;27;20031;-56
2022/08/17 07:09:27;;;;;;;28.00;12.20;;;;;;;20.06;67.04;98739.19;5087632;28;20615;-56
2022/08/17 07:11:59;;;;;;;31.48;14.43;;;;;;;20.10;66.79;98735.53;5098354;27;20028;-56
2022/08/17 07:14:38;;;;;;;34.85;12.77;;;;;;;20.29;66.09;98735.22;5073577;28;20101;-57
2022/08/17 07:17:13;;;;;;;43.05;12.88;;;;;;;20.44;66.63;98740.22;5072790;28;20024;-58
2022/08/17 07:19:40;;;;;;;39.22;12.60;;;;;;;20.74;66.29;98745.81;5076285;28;20531;-58
2022/08/17 07:22:24;;;;;;;38.25;12.50;;;;;;;20.99;67.02;98759.75;5058928;28;20024;-57
2022/08/17 07:25:04;;;;;;;53.95;14.35;;;;;;;21.03;67.66;98758.00;5058428;28;20487;-57
2022/08/17 07:27:31;;;;;;;64.28;13.85;;;;;;;20.77;67.15;98752.59;5061243;28;20035;-57
2022/08/17 07:30:04;;;;;;;81.28;14.20;;;;;;;20.60;66.97;98746.00;5073378;28;20032;-57
2022/08/17 07:32:34;;;;;;;61.17;14.48;;;;;;;20.55;66.88;98753.53;5076845;28;20033;-57
2022/08/17 07:34:59;;;;;;;80.50;14.05;;;;;;;20.55;67.74;98746.16;5078384;28;20423;-57
2022/08/17 07:37:25;;;;;;;62.92;14.52;;;;;;;20.74;66.34;98748.56;5074698;28;20111;-58
2022/08/17 07:39:50;;;;;;;77.85;15.70;;;;;;;20.90;65.65;98751.59;5076716;28;20458;-58
2022/08/17 07:42:16;;;;;;;148.55;15.75;;;;;;;20.91;66.31;98755.91;5082880;28;20040;-57
2022/08/17 07:44:53;;;;;;;120.40;17.83;;;;;;;20.84;66.35;98750.97;5058777;28;20028;-57
2022/08/17 07:50:03;;;;;;;152.27;17.65;;;;;;;20.98;65.75;98758.16;5056221;28;20039;-57
2022/08/17 07:52:30;;;;;;;154.73;19.33;;;;;;;20.90;65.64;98759.78;5043708;28;20307;-57
2022/08/17 07:54:56;;;;;;;223.82;22.75;;;;;;;20.72;66.14;98759.00;5076306;28;20073;-58
2022/08/17 07:57:32;;;;;;;196.10;22.95;;;;;;;20.60;66.89;98764.28;5073820;28;20425;-57
2022/08/17 08:00:01;;;;;;;193.70;20.25;;;;;;;20.60;67.72;98769.72;5072023;28;20327;-57
2022/08/17 08:02:37;;;;;;;173.40;18.98;;;;;;;20.56;67.20;98763.28;5076315;28;20059;-59
2022/08/17 08:05:04;;;;;;;212.80;18.30;;;;;;;20.47;68.08;98772.25;5053399;28;20080;-57
2022/08/17 08:07:53;;;;;;;190.25;19.15;;;;;;;20.57;67.04;98778.53;5060132;28;20032;-58
2022/08/17 08:10:31;;;;;;;162.25;18.20;;;;;;;20.64;67.03;98787.00;5048256;28;20036;-57
2022/08/17 08:13:04;;;;;;;136.80;17.02;;;;;;;20.59;66.89;98785.25;5076310;28;20127;-57
2022/08/17 08:15:41;;;;;;;122.25;16.70;;;;;;;20.56;66.73;98790.53;5071189;28;20039;-56
2022/08/17 08:18:43;;;;;;;81.63;13.57;;;;;;;20.78;66.79;98782.19;5054189;28;20075;-57
2022/08/17 08:21:27;;;;;;;118.18;16.90;;;;;;;20.88;67.16;98781.88;5063009;28;20049;-57
2022/08/17 08:24:11;;;;;;;113.93;16.80;;;;;;;21.09;66.88;98792.09;5071795;28;20028;-57
2022/08/17 08:27:12;;;;;;;139.43;18.55;;;;;;;20.95;68.27;98789.56;5063128;28;20021;-57
2022/08/17 08:29:53;;;;;;;78.15;14.82;;;;;;;20.82;69.05;98799.50;5040053;28;20032;-57
2022/08/17 08:32:36;;;;;;;114.88;17.02;;;;;;;21.06;67.90;98793.53;5073378;28;20090;-57
2022/08/17 08:35:10;;;;;;;90.80;16.58;;;;;;;20.70;69.35;98791.19;5071521;28;20050;-57
2022/08/17 08:37:52;;;;;;;78.32;15.20;;;;;;;20.94;69.11;98803.50;5057046;28;20482;-57
2022/08/17 08:40:30;;;;;;;52.47;13.93;;;;;;;20.92;68.79;98803.84;5039835;28;20073;-57
2022/08/17 08:43:16;;;;;;;60.90;14.23;;;;;;;21.09;68.41;98811.16;5068420;28;20525;-57
2022/08/17 08:45:55;;;;;;;44.95;14.68;;;;;;;21.21;67.72;98808.59;5053023;28;20028;-57
2022/08/17 08:48:54;;;;;;;49.00;15.10;;;;;;;21.01;68.75;98820.16;5055252;28;20032;-57
2022/08/17 08:51:55;;;;;;;48.30;15.73;;;;;;;20.84;68.58;98808.16;5065990;28;20048;-57
2022/08/17 08:54:33;;;;;;;71.40;15.88;;;;;;;21.15;68.19;98812.63;5075234;28;20427;-57
2022/08/17 08:57:22;;;;;;;56.20;15.05;;;;;;;21.18;68.02;98811.19;5067711;28;20615;-57
2022/08/17 09:00:04;;;;;;;77.65;15.30;;;;;;;21.56;66.22;98808.56;5045189;28;20028;-57
2022/08/17 09:02:54;;;;;;;84.75;14.63;;;;;;;21.72;65.72;98806.13;5053882;28;20042;-57
2022/08/17 09:05:33;;;;;;;63.75;14.60;;;;;;;22.02;64.68;98801.50;5066754;28;20076;-57
2022/08/17 09:08:20;;;;;;;55.80;13.25;;;;;;;22.16;62.85;98802.03;5051248;28;20032;-57
2022/08/17 09:11:25;;;;;;;52.05;13.23;;;;;;;22.46;62.23;98798.53;5067553;28;20047;-57
2022/08/17 09:14:04;;;;;;;46.88;11.45;;;;;;;22.80;60.80;98800.22;5040730;28;20047;-57
2022/08/17 09:16:40;;;;;;;43.28;12.07;;;;;;;23.03;60.58;98796.00;5088369;28;20024;-57
2022/08/17 09:19:29;;;;;;;44.65;12.70;;;;;;;23.65;58.72;98793.44;5086491;28;20024;-57
2022/08/17 09:21:59;;;;;;;28.93;11.50;;;;;;;23.14;59.18;98798.31;5102835;28;20122;-57
2022/08/17 09:24:31;;;;;;;;;;;;;;;22.75;60.58;98800.41;5093839;28;20149;-57
2022/08/17 09:27:01;;;;;;;36.08;11.32;;;;;;;22.39;61.64;98802.59;5090512;28;19924;-57
2022/08/17 09:29:31;;;;;;;31.98;11.40;;;;;;;22.52;61.52;98797.22;5097467;28;20050;-56
2022/08/17 09:32:00;;;;;;;32.97;10.57;;;;;;;23.04;59.92;98797.63;5090276;28;20069;-57
2022/08/17 09:34:37;;;;;;;48.25;12.43;;;;;;;22.76;59.98;98796.53;5090329;28;20032;-57
2022/08/17 09:37:15;;;;;;;61.42;12.98;;;;;;;22.63;60.39;98798.41;5079970;28;20028;-56
2022/08/17 09:40:15;;;;;;;47.65;11.88;;;;;;;22.52;60.94;98808.94;5090576;28;20455;-57
2022/08/17 09:43:02;;;;;;;51.70;11.05;;;;;;;22.56;59.71;98809.84;5089215;28;20153;-57
2022/08/17 09:46:01;;;;;;;39.15;11.43;;;;;;;22.58;59.37;98813.06;5097368;28;20110;-57
2022/08/17 09:48:36;;;;;;;44.10;11.50;;;;;;;23.12;58.46;98828.75;5095815;28;20492;-58
2022/08/17 09:51:30;;;;;;;34.75;11.52;;;;;;;23.04;58.08;98835.88;5110604;28;20469;-56
2022/08/17 09:53:56;;;;;;;35.55;10.77;;;;;;;24.03;54.92;98847.09;5099298;28;20412;-56
2022/08/17 09:56:44;;;;;;;57.67;10.95;;;;;;;24.82;53.18;98847.66;5092441;28;20028;-56
2022/08/17 09:59:26;;;;;;;44.38;11.13;;;;;;;25.93;50.35;98847.97;5110821;28;20050;-57
2022/08/17 10:01:55;;;;;;;40.95;10.65;;;;;;;26.18;49.00;98837.59;5110770;28;20398;-56
2022/08/17 10:04:43;;;;;;;41.60;10.63;;;;;;;25.67;49.71;98834.72;5075129;28;20110;-56
2022/08/17 10:07:24;;;;;;;33.00;10.55;;;;;;;25.31;50.66;98835.72;5099850;28;20085;-56
2022/08/17 10:10:11;;;;;;;25.98;9.73;;;;;;;26.72;47.97;98832.56;5091864;28;20028;-56
2022/08/17 10:12:40;;;;;;;27.88;9.32;;;;;;;25.65;49.08;98833.50;5076697;28;20106;-56
2022/08/17 10:15:26;;;;;;;18.33;8.50;;;;;;;26.11;48.39;98831.13;5113373;28;20024;-56
2022/08/17 10:18:12;;;;;;;24.70;9.55;;;;;;;25.47;49.71;98824.81;5110642;28;20093;-56
2022/08/17 10:26:33;;;;;;;24.65;8.85;;;;;;;27.07;46.61;98800.28;5094464;28;20097;-56
2022/08/17 10:29:05;;;;;;;29.25;11.52;;;;;;;27.63;44.94;98807.25;5110484;28;20043;-57
2022/08/17 10:31:34;;;;;;;44.17;11.32;;;;;;;28.13;44.03;98804.53;5120748;27;20023;-56
2022/08/17 10:34:31;;;;;;;38.10;11.40;;;;;;;28.31;43.32;98810.34;5098321;27;20110;-56
2022/08/17 10:37:21;;;;;;;24.40;9.40;;;;;;;26.98;45.00;98809.91;5118517;27;20022;-56
2022/08/17 10:40:01;;;;;;;19.25;9.05;;;;;;;26.31;46.84;98819.06;5113784;27;20024;-56
2022/08/17 10:42:32;;;;;;;24.02;9.23;;;;;;;26.19;47.71;98813.69;5113514;27;20031;-56
2022/08/17 10:45:13;;;;;;;23.88;9.02;;;;;;;25.73;48.54;98818.78;5113480;27;20024;-55
2022/08/17 10:48:15;;;;;;;22.23;9.00;;;;;;;26.00;48.63;98809.69;5089791;28;20489;-55
2022/08/17 10:50:42;;;;;;;25.33;8.23;;;;;;;26.90;46.03;98817.22;5112415;27;20027;-55
2022/08/17 10:53:08;;;;;;;20.92;8.35;;;;;;;27.48;45.49;98813.66;5095033;27;20039;-58
2022/08/17 10:55:33;;;;;;;37.13;9.88;;;;;;;27.62;44.99;98808.41;5078420;28;20042;-55
2022/08/17 10:58:29;;;;;;;20.67;10.23;;;;;;;27.50;45.28;98805.84;5095173;28;20019;-56
2022/08/17 11:00:55;;;;;;;31.88;9.75;;;;;;;27.37;45.21;98802.47;5095035;27;20046;-57
2022/08/17 11:03:25;;;;;;;29.08;9.98;;;;;;;27.40;44.62;98795.44;5113353;27;20077;-56
2022/08/17 11:06:20;;;;;;;30.55;8.63;;;;;;;28.11;43.95;98791.16;5077013;28;20422;-55
2022/08/17 11:08:46;;;;;;;45.72;9.77;;;;;;;28.84;42.59;98798.47;5073913;28;20115;-58
2022/08/17 11:11:14;;;;;;;32.47;9.38;;;;;;;29.46;41.31;98791.31;5112936;27;20130;-57
2022/08/17 11:14:06;;;;;;;26.10;9.02;;;;;;;28.95;42.37;98793.88;5113259;27;20048;-55
2022/08/17 11:17:10;;;;;;;32.30;8.65;;;;;;;29.57;41.19;98785.09;5094930;28;20059;-56
2022/08/17 11:19:54;;;;;;;24.00;9.57;;;;;;;28.52;42.36;98793.34;5113022;27;20055;-58
2022/08/17 11:23:07;;;;;;;29.75;12.70;;;;;;;28.25;42.58;98784.25;5113025;27;20074;-57
2022/08/17 11:25:37;;;;;;;26.52;10.82;;;;;;;26.23;46.55;98781.59;5056589;28;20025;-57
2022/08/17 11:28:20;;;;;;;33.05;9.98;;;;;;;26.88;45.35;98787.38;5049001;28;20027;-55
2022/08/17 11:31:04;;;;;;;32.38;11.77;;;;;;;27.48;44.25;98780.63;5074554;28;20043;-57
2022/08/17 11:33:35;;;;;;;33.50;11.57;;;;;;;27.84;43.55;98778.53;5079500;28;20449;-56
2022/08/17 11:36:30;;;;;;;24.02;11.77;;;;;;;27.27;44.39;98781.84;5111967;27;20023;-56
2022/08/17 11:39:22;;;;;;;28.45;10.45;;;;;;;27.43;44.47;98789.19;5093954;27;20070;-55
2022/08/17 11:42:15;;;;;;;17.95;7.97;;;;;;;29.39;41.41;98782.16;5094165;28;20024;-55
2022/08/17 11:44:44;;;;;;;21.00;9.50;;;;;;;30.25;38.86;98786.50;5112499;28;20031;-55
2022/08/17 11:53:38;;;;;;;26.23;9.95;;;;;;;28.98;41.33;98799.44;5089748;27;20042;-56
2022/08/17 11:56:03;;;;;;;30.25;9.90;;;;;;;28.23;42.67;98790.16;5112054;27;20546;-57
2022/08/17 11:58:29;;;;;;;28.77;9.95;;;;;;;28.84;42.07;98793.75;5112224;27;20115;-55
2022/08/17 12:01:02;;;;;;;22.33;9.82;;;;;;;28.70;41.87;98791.59;5111872;27;20023;-57
2022/08/17 12:03:30;;;;;;;22.83;9.45;;;;;;;28.88;41.71;98791.84;5118522;27;20223;-57
2022/08/17 12:06:04;;;;;;;27.75;10.00;;;;;;;28.98;41.58;98788.41;5111499;27;20037;-57
2022/08/17 12:08:31;;;;;;;35.92;10.45;;;;;;;28.69;42.09;98789.22;5112129;27;20427;-57
2022/08/17 12:11:05;;;;;;;24.42;10.18;;;;;;;29.24;40.89;98792.25;5093766;28;20050;-56
2022/08/17 12:13:32;;;;;;;25.15;11.07;;;;;;;27.93;42.70;98788.13;5094572;28;20401;-56
2022/08/17 12:15:58;;;;;;;22.88;9.80;;;;;;;28.52;41.92;98788.59;5094039;27;20462;-56
2022/08/17 12:18:27;;;;;;;24.50;9.07;;;;;;;27.50;44.83;98778.31;5077948;28;20030;-56